createdAt,value
2023-09-17T00:01:00.110Z,4.50
2023-09-17T00:03:47.418Z,4.87
2023-09-17T00:06:34.569Z,3.03
2023-09-17T00:09:21.606Z,3.00
2023-09-17T00:12:08.892Z,4.00
2023-09-17T00:14:56.022Z,3.77
2023-09-17T00:17:43.034Z,5.00
2023-09-17T00:20:30.070Z,4.00
2023-09-17T00:23:17.106Z,3.97
2023-09-17T00:26:04.607Z,4.33
2023-09-17T00:28:51.624Z,3.83
2023-09-17T00:31:39.122Z,3.77
2023-09-17T00:34:27.346Z,3.23
2023-09-17T00:37:16.604Z,4.37
2023-09-17T00:40:06.774Z,4.60
2023-09-17T00:42:53.832Z,3.73
2023-09-17T00:45:43.778Z,3.63
2023-09-17T00:48:32.855Z,4.13
2023-09-17T00:51:20.384Z,4.77
2023-09-17T00:54:10.757Z,3.67
2023-09-17T00:56:58.527Z,3.47
2023-09-17T00:59:45.935Z,3.77
2023-09-17T01:02:37.600Z,4.23
2023-09-17T01:05:25.937Z,3.60
2023-09-17T01:08:13.446Z,3.80
2023-09-17T01:11:01.030Z,4.20
2023-09-17T01:13:59.871Z,3.97
2023-09-17T01:16:47.598Z,4.10
2023-09-17T01:19:35.833Z,4.33
2023-09-17T01:22:22.833Z,3.80
2023-09-17T01:25:30.242Z,3.73
2023-09-17T01:28:17.820Z,3.83
2023-09-17T01:31:05.640Z,3.70
2023-09-17T01:33:54.646Z,3.43
2023-09-17T01:36:43.692Z,3.40
2023-09-17T01:39:36.940Z,3.73
2023-09-17T01:42:25.904Z,3.93
2023-09-17T01:45:15.063Z,3.53
2023-09-17T01:48:03.687Z,3.93
2023-09-17T01:50:51.561Z,4.23
2023-09-17T01:53:39.423Z,5.07
2023-09-17T01:56:27.407Z,3.90
2023-09-17T01:59:15.118Z,3.50
2023-09-17T02:02:02.290Z,3.03
2023-09-17T02:04:49.390Z,3.40
2023-09-17T02:07:37.634Z,3.20
2023-09-17T02:10:25.805Z,3.77
2023-09-17T02:13:12.858Z,3.50
2023-09-17T02:16:00.139Z,3.40
2023-09-17T02:18:47.258Z,3.93
2023-09-17T02:21:34.315Z,6.73
2023-09-17T02:24:22.327Z,5.23
2023-09-17T02:27:09.905Z,5.90
2023-09-17T02:29:56.965Z,4.17
2023-09-17T02:32:45.133Z,3.83
2023-09-17T02:35:32.246Z,3.40
2023-09-17T02:38:19.330Z,3.70
2023-09-17T02:41:06.325Z,3.60
2023-09-17T02:43:53.698Z,3.40
2023-09-17T02:46:42.721Z,3.47
2023-09-17T02:49:29.952Z,3.70
2023-09-17T02:52:17.000Z,3.50
2023-09-17T02:55:05.859Z,3.53
2023-09-17T02:57:52.943Z,4.47
2023-09-17T03:00:40.367Z,3.70
2023-09-17T03:03:27.489Z,5.33
2023-09-17T03:06:15.118Z,3.80
2023-09-17T03:09:02.619Z,3.43
2023-09-17T03:11:49.603Z,3.93
2023-09-17T03:14:36.633Z,4.10
2023-09-17T03:17:23.794Z,3.30
2023-09-17T03:20:23.370Z,3.93
2023-09-17T03:23:10.418Z,3.77
2023-09-17T03:25:58.845Z,3.87
2023-09-17T03:28:46.438Z,4.30
2023-09-17T03:31:33.899Z,4.20
2023-09-17T03:34:21.897Z,4.30
2023-09-17T03:37:09.210Z,5.20
2023-09-17T03:40:08.735Z,4.83
2023-09-17T03:42:57.172Z,4.00
2023-09-17T03:45:44.245Z,4.20
2023-09-17T03:48:33.081Z,3.50
2023-09-17T03:51:20.393Z,4.87
2023-09-17T03:54:07.560Z,4.17
2023-09-17T03:56:54.681Z,3.67
2023-09-17T03:59:41.681Z,4.23
2023-09-17T04:02:28.880Z,4.73
2023-09-17T04:05:16.230Z,5.17
2023-09-17T04:08:04.443Z,4.57
2023-09-17T04:10:55.303Z,4.70
2023-09-17T04:13:42.685Z,4.83
2023-09-17T04:16:29.873Z,4.07
2023-09-17T04:19:16.956Z,4.40
2023-09-17T04:22:05.485Z,3.67
2023-09-17T04:24:52.930Z,4.67
2023-09-17T04:27:42.953Z,4.90
2023-09-17T04:30:31.688Z,4.00
2023-09-17T04:33:20.596Z,4.67
2023-09-17T04:36:07.718Z,4.27
2023-09-17T04:38:54.785Z,4.00
2023-09-17T04:41:42.067Z,4.10
2023-09-17T04:44:29.564Z,4.37
2023-09-17T04:47:16.783Z,4.20
2023-09-17T04:50:05.688Z,3.93
2023-09-17T04:52:52.726Z,4.57
2023-09-17T04:55:39.878Z,4.30
2023-09-17T04:58:27.654Z,6.23
2023-09-17T05:01:14.723Z,4.10
2023-09-17T05:04:03.437Z,4.47
2023-09-17T05:06:50.536Z,4.77
2023-09-17T05:09:38.452Z,3.63
2023-09-17T05:12:25.501Z,4.37
2023-09-17T05:15:13.051Z,3.70
2023-09-17T05:18:01.251Z,3.87
2023-09-17T05:20:49.481Z,4.00
2023-09-17T05:23:36.524Z,4.03
2023-09-17T05:26:24.216Z,4.83
2023-09-17T05:29:16.657Z,4.47
2023-09-17T05:32:06.516Z,4.23
2023-09-17T05:34:53.882Z,4.30
2023-09-17T05:37:40.975Z,4.27
2023-09-17T05:40:28.772Z,3.40
2023-09-17T05:43:16.515Z,3.67
2023-09-17T05:46:03.699Z,3.40
2023-09-17T05:48:57.249Z,4.07
2023-09-17T05:51:44.231Z,3.77
2023-09-17T05:54:31.209Z,3.83
2023-09-17T05:57:18.593Z,3.63
2023-09-17T06:00:08.754Z,4.10
2023-09-17T06:03:01.893Z,4.20
2023-09-17T06:05:49.028Z,4.10
2023-09-17T06:08:36.044Z,4.87
2023-09-17T06:11:23.068Z,5.00
2023-09-17T06:14:10.163Z,4.97
2023-09-17T06:16:58.805Z,5.03
2023-09-17T06:19:46.262Z,4.73
2023-09-17T06:22:33.538Z,4.93
2023-09-17T06:25:25.813Z,4.47
2023-09-17T06:28:13.673Z,4.93
2023-09-17T06:31:01.051Z,4.63
2023-09-17T06:33:48.484Z,4.60
2023-09-17T06:36:35.515Z,4.37
2023-09-17T06:39:22.531Z,5.27
2023-09-17T06:42:10.808Z,4.77
2023-09-17T06:44:57.808Z,5.43
2023-09-17T06:47:45.900Z,4.90
2023-09-17T06:50:32.932Z,4.90
2023-09-17T06:53:19.965Z,4.90
2023-09-17T06:56:09.745Z,4.93
2023-09-17T06:58:57.264Z,4.57
2023-09-17T07:01:46.611Z,4.90
2023-09-17T07:04:33.747Z,4.17
2023-09-17T07:07:21.130Z,6.20
2023-09-17T07:10:08.474Z,5.50
2023-09-17T07:12:55.607Z,5.07
2023-09-17T07:15:44.605Z,5.33
2023-09-17T07:18:32.899Z,5.03
2023-09-17T07:21:20.071Z,5.07
2023-09-17T07:24:07.448Z,4.83
2023-09-17T07:26:54.460Z,4.80
2023-09-17T07:29:41.411Z,4.30
2023-09-17T07:32:29.479Z,4.60
2023-09-17T07:35:17.188Z,4.83
2023-09-17T07:38:04.365Z,4.13
2023-09-17T07:40:52.130Z,4.97
2023-09-17T07:43:39.406Z,4.87
2023-09-17T07:46:26.648Z,4.80
2023-09-17T07:49:13.696Z,4.40
2023-09-17T07:52:00.786Z,4.27
2023-09-17T07:54:48.260Z,5.07
2023-09-17T07:57:35.537Z,5.53
2023-09-17T08:00:22.618Z,4.67
2023-09-17T08:03:09.715Z,4.80
2023-09-17T08:05:58.090Z,5.17
2023-09-17T08:08:47.056Z,4.80
2023-09-17T08:11:34.306Z,4.70
2023-09-17T08:14:23.747Z,4.73
2023-09-17T08:17:11.463Z,4.33
2023-09-17T08:19:59.775Z,4.77
2023-09-17T08:22:47.100Z,5.17
2023-09-17T08:25:54.163Z,4.77
2023-09-17T08:29:06.298Z,4.90
2023-09-17T08:32:13.598Z,4.07
2023-09-17T08:35:20.689Z,5.20
2023-09-17T08:38:07.716Z,4.90
2023-09-17T08:40:55.060Z,5.13
2023-09-17T08:43:42.723Z,5.43
2023-09-17T08:46:32.181Z,5.37
2023-09-17T08:49:19.282Z,5.33
2023-09-17T08:52:08.121Z,6.20
2023-09-17T08:54:56.754Z,5.40
2023-09-17T08:57:49.888Z,5.93
2023-09-17T09:00:40.781Z,5.20
2023-09-17T09:03:29.293Z,5.53
2023-09-17T09:06:18.127Z,5.13
2023-09-17T09:09:06.393Z,5.00
2023-09-17T09:11:53.958Z,5.23
2023-09-17T09:14:41.809Z,5.63
2023-09-17T09:17:28.894Z,4.80
2023-09-17T09:20:16.090Z,4.30
2023-09-17T09:23:03.205Z,4.77
2023-09-17T09:25:50.381Z,4.40
2023-09-17T09:28:37.472Z,4.37
2023-09-17T09:31:26.032Z,4.30
2023-09-17T09:34:13.613Z,4.00
2023-09-17T09:37:05.073Z,4.17
2023-09-17T09:39:52.090Z,4.50
2023-09-17T09:42:39.134Z,4.50
2023-09-17T09:45:26.825Z,4.57
2023-09-17T09:48:15.005Z,4.03
2023-09-17T09:51:02.006Z,4.37
2023-09-17T09:53:49.980Z,4.20
2023-09-17T09:56:37.192Z,3.93
2023-09-17T09:59:24.433Z,4.47
2023-09-17T10:02:14.193Z,4.27
2023-09-17T10:05:01.545Z,4.23
2023-09-17T10:07:49.130Z,3.97
2023-09-17T10:10:39.943Z,4.53
2023-09-17T10:13:27.010Z,4.10
2023-09-17T10:16:15.840Z,4.10
2023-09-17T10:19:05.529Z,3.80
2023-09-17T10:21:54.157Z,4.03
2023-09-17T10:24:43.081Z,4.13
2023-09-17T10:27:31.927Z,3.93
2023-09-17T10:30:19.857Z,3.90
2023-09-17T10:33:10.241Z,3.80
2023-09-17T10:36:00.161Z,3.90
2023-09-17T10:38:47.922Z,3.63
2023-09-17T10:41:38.338Z,3.70
2023-09-17T10:44:27.059Z,4.03
2023-09-17T10:47:15.996Z,4.50
2023-09-17T10:50:07.127Z,4.10
2023-09-17T10:52:54.642Z,4.17
2023-09-17T10:55:48.171Z,3.53
2023-09-17T10:58:39.030Z,3.50
2023-09-17T11:01:30.904Z,3.77
2023-09-17T11:04:23.129Z,3.80
2023-09-17T11:07:10.997Z,3.17
2023-09-17T11:09:59.369Z,3.10
2023-09-17T11:12:48.666Z,3.60
2023-09-17T11:15:36.266Z,3.50
2023-09-17T11:18:23.295Z,3.80
2023-09-17T11:21:10.957Z,3.73
2023-09-17T11:23:57.959Z,3.37
2023-09-17T11:26:46.621Z,3.43
2023-09-17T11:29:45.411Z,3.60
2023-09-17T11:32:32.534Z,3.47
2023-09-17T11:35:25.343Z,3.40
2023-09-17T11:38:13.735Z,3.37
2023-09-17T11:41:09.326Z,3.03
2023-09-17T11:43:56.401Z,3.03
2023-09-17T11:46:43.934Z,3.10
2023-09-17T11:49:32.213Z,3.00
2023-09-17T11:52:19.340Z,3.03
2023-09-17T11:55:13.070Z,3.23
2023-09-17T11:58:17.309Z,3.17
2023-09-17T12:01:08.731Z,3.07
2023-09-17T12:03:55.912Z,2.90
2023-09-17T12:06:45.374Z,2.90
2023-09-17T12:09:39.583Z,2.93
2023-09-17T12:12:26.708Z,2.73
2023-09-17T12:15:13.953Z,2.70
2023-09-17T12:18:01.842Z,2.77
2023-09-17T12:21:00.217Z,2.87
2023-09-17T12:23:58.330Z,2.97
2023-09-17T12:27:08.579Z,2.90
2023-09-17T12:29:57.031Z,2.90
2023-09-17T12:32:44.454Z,2.30
2023-09-17T12:35:31.757Z,2.60
2023-09-17T12:38:18.947Z,2.50
2023-09-17T12:41:06.090Z,2.77
2023-09-17T12:43:53.497Z,2.83
2023-09-17T12:46:41.307Z,2.50
2023-09-17T12:49:28.567Z,2.60
2023-09-17T12:52:16.896Z,2.83
2023-09-17T12:55:04.772Z,2.60
2023-09-17T12:57:51.922Z,2.70
2023-09-17T13:00:38.910Z,2.67
2023-09-17T13:03:26.114Z,2.30
2023-09-17T13:06:13.184Z,2.20
2023-09-17T13:09:03.361Z,2.47
2023-09-17T13:11:55.444Z,2.53
2023-09-17T13:14:42.477Z,2.57
2023-09-17T13:17:30.517Z,2.97
2023-09-17T13:20:18.440Z,3.30
2023-09-17T13:23:05.738Z,2.83
2023-09-17T13:25:54.024Z,2.90
2023-09-17T13:28:41.696Z,2.90
2023-09-17T13:31:28.746Z,2.47
2023-09-17T13:34:15.864Z,2.60
2023-09-17T13:37:03.176Z,2.20
2023-09-17T13:39:50.692Z,2.20
2023-09-17T13:42:38.107Z,1.60
2023-09-17T13:45:25.130Z,2.20
2023-09-17T13:48:12.260Z,2.20
2023-09-17T13:50:59.301Z,2.03
2023-09-17T13:53:46.330Z,1.90
2023-09-17T13:56:33.332Z,2.10
2023-09-17T13:59:20.312Z,2.23
2023-09-17T14:02:07.957Z,2.50
2023-09-17T14:04:55.252Z,2.30
2023-09-17T14:07:42.498Z,2.40
2023-09-17T14:10:30.700Z,2.67
2023-09-17T14:13:17.742Z,2.40
2023-09-17T14:16:05.085Z,2.40
2023-09-17T14:18:52.373Z,2.60
2023-09-17T14:21:41.333Z,2.17
2023-09-17T14:24:28.862Z,2.60
2023-09-17T14:27:16.354Z,2.20
2023-09-17T14:30:05.480Z,2.20
2023-09-17T14:32:53.408Z,2.60
2023-09-17T14:35:43.284Z,2.20
2023-09-17T14:38:30.338Z,2.30
2023-09-17T14:41:17.382Z,2.37
2023-09-17T14:44:04.486Z,2.37
2023-09-17T14:46:53.202Z,2.50
2023-09-17T14:49:40.262Z,2.67
2023-09-17T14:52:27.273Z,2.80
2023-09-17T14:55:14.323Z,2.50
2023-09-17T14:58:01.285Z,2.20
2023-09-17T15:00:50.832Z,2.23
2023-09-17T15:03:38.110Z,2.40
2023-09-17T15:06:25.250Z,2.80
2023-09-17T15:09:12.254Z,2.30
2023-09-17T15:11:59.225Z,2.77
2023-09-17T15:14:46.453Z,2.80
2023-09-17T15:17:33.993Z,2.73
2023-09-17T15:20:21.705Z,2.70
2023-09-17T15:23:08.917Z,2.47
2023-09-17T15:25:56.032Z,2.50
2023-09-17T15:28:44.486Z,2.50
2023-09-17T15:31:37.208Z,2.80
2023-09-17T15:34:25.438Z,2.50
2023-09-17T15:37:12.619Z,2.83
2023-09-17T15:39:59.608Z,2.80
2023-09-17T15:42:47.044Z,2.30
2023-09-17T15:45:34.199Z,2.40
2023-09-17T15:48:21.214Z,2.60
2023-09-17T15:51:08.187Z,3.50
2023-09-17T15:53:55.156Z,2.70
2023-09-17T15:56:42.492Z,2.83
2023-09-17T15:59:29.575Z,11.20
2023-09-17T16:02:16.945Z,3.23
2023-09-17T16:05:04.224Z,3.10
2023-09-17T16:07:51.338Z,2.60
2023-09-17T16:10:38.817Z,2.87
2023-09-17T16:13:25.966Z,2.87
2023-09-17T16:16:13.087Z,3.13
2023-09-17T16:19:00.157Z,2.37
2023-09-17T16:21:48.297Z,3.43
2023-09-17T16:24:35.306Z,3.03
2023-09-17T16:27:22.364Z,3.03
2023-09-17T16:30:11.176Z,3.20
2023-09-17T16:32:58.427Z,3.47
2023-09-17T16:35:46.803Z,3.00
2023-09-17T16:38:33.834Z,3.20
2023-09-17T16:41:21.042Z,2.70
2023-09-17T16:44:08.167Z,3.40
2023-09-17T16:46:55.259Z,3.20
2023-09-17T16:49:42.545Z,3.33
2023-09-17T16:52:29.559Z,3.90
2023-09-17T16:55:16.568Z,3.53
2023-09-17T16:58:03.708Z,3.23
2023-09-17T17:00:51.150Z,3.00
2023-09-17T17:03:38.193Z,3.37
2023-09-17T17:06:25.305Z,3.00
2023-09-17T17:09:12.412Z,2.73
2023-09-17T17:11:59.587Z,2.80
2023-09-17T17:14:48.795Z,3.00
2023-09-17T17:17:35.900Z,3.37
2023-09-17T17:20:23.106Z,4.40
2023-09-17T17:23:10.238Z,3.10
2023-09-17T17:25:59.179Z,2.93
2023-09-17T17:28:46.308Z,3.50
2023-09-17T17:31:33.376Z,3.40
2023-09-17T17:34:21.354Z,3.27
2023-09-17T17:37:08.709Z,3.50
2023-09-17T17:39:59.699Z,3.43
2023-09-17T17:42:46.681Z,3.27
2023-09-17T17:45:35.887Z,3.63
2023-09-17T17:48:22.980Z,3.73
2023-09-17T17:51:10.209Z,3.23
2023-09-17T17:53:57.447Z,3.80
2023-09-17T17:56:44.459Z,3.30
2023-09-17T17:59:31.515Z,3.50
2023-09-17T18:02:18.741Z,3.50
2023-09-17T18:05:09.670Z,3.83
2023-09-17T18:07:56.815Z,3.60
2023-09-17T18:10:44.852Z,3.70
2023-09-17T18:13:32.379Z,3.60
2023-09-17T18:16:19.470Z,3.70
2023-09-17T18:19:06.455Z,4.00
2023-09-17T18:21:53.448Z,3.60
2023-09-17T18:24:40.737Z,3.13
2023-09-17T18:27:27.706Z,3.47
2023-09-17T18:30:14.741Z,3.47
2023-09-17T18:33:01.740Z,3.93
2023-09-17T18:35:48.747Z,3.87
2023-09-17T18:38:35.818Z,3.70
2023-09-17T18:41:22.987Z,3.87
2023-09-17T18:44:10.126Z,4.70
2023-09-17T18:46:57.239Z,4.27
2023-09-17T18:49:46.051Z,4.20
2023-09-17T18:52:33.156Z,4.03
2023-09-17T18:55:20.223Z,4.07
2023-09-17T18:58:07.206Z,3.60
2023-09-17T19:00:54.303Z,4.03
2023-09-17T19:03:41.443Z,4.20
2023-09-17T19:06:28.570Z,3.90
2023-09-17T19:09:15.599Z,3.67
2023-09-17T19:12:07.559Z,3.80
2023-09-17T19:14:57.643Z,3.87
2023-09-17T19:17:44.646Z,3.63
2023-09-17T19:20:31.686Z,4.10
2023-09-17T19:23:18.724Z,3.67
2023-09-17T19:26:07.586Z,3.90
2023-09-17T19:28:55.135Z,4.00
2023-09-17T19:31:42.149Z,3.50
2023-09-17T19:34:29.130Z,3.20
2023-09-17T19:37:16.290Z,3.80
2023-09-17T19:40:04.096Z,3.70
2023-09-17T19:42:51.061Z,3.93
2023-09-17T19:45:38.135Z,4.17
2023-09-17T19:48:25.858Z,3.97
2023-09-17T19:51:12.937Z,4.00
2023-09-17T19:54:00.206Z,3.50
2023-09-17T19:56:47.853Z,4.00
2023-09-17T19:59:35.009Z,3.70
2023-09-17T20:02:22.110Z,4.03
2023-09-17T20:05:09.974Z,4.50
2023-09-17T20:07:56.982Z,4.00
2023-09-17T20:10:44.034Z,3.80
2023-09-17T20:13:32.777Z,4.30
2023-09-17T20:16:19.807Z,4.17
2023-09-17T20:19:07.026Z,4.80
2023-09-17T20:21:54.005Z,4.43
2023-09-17T20:24:41.156Z,4.43
2023-09-17T20:27:31.393Z,4.17
2023-09-17T20:30:18.451Z,4.10
2023-09-17T20:33:06.550Z,3.87
2023-09-17T20:35:54.078Z,4.27
2023-09-17T20:38:42.006Z,4.10
2023-09-17T20:41:29.527Z,4.70
2023-09-17T20:44:16.580Z,3.77
2023-09-17T20:47:03.846Z,5.10
2023-09-17T20:49:51.006Z,5.03
2023-09-17T20:52:39.023Z,4.70
2023-09-17T20:55:27.767Z,4.93
2023-09-17T20:58:14.942Z,4.50
2023-09-17T21:01:02.031Z,4.57
2023-09-17T21:03:49.094Z,4.63
2023-09-17T21:06:36.109Z,4.43
2023-09-17T21:09:25.576Z,4.20
2023-09-17T21:12:12.776Z,4.70
2023-09-17T21:15:02.887Z,4.60
2023-09-17T21:17:49.911Z,4.00
2023-09-17T21:20:37.271Z,4.10
2023-09-17T21:23:24.379Z,4.53
2023-09-17T21:26:12.027Z,4.33
2023-09-17T21:28:59.134Z,4.63
2023-09-17T21:31:46.204Z,4.30
2023-09-17T21:34:33.290Z,4.40
2023-09-17T21:37:20.289Z,4.60
2023-09-17T21:40:07.754Z,4.53
2023-09-17T21:42:54.811Z,4.20
2023-09-17T21:45:41.809Z,5.10
2023-09-17T21:48:28.827Z,4.17
2023-09-17T21:51:15.774Z,4.33
2023-09-17T21:54:02.861Z,3.97
2023-09-17T21:56:50.939Z,4.57
2023-09-17T21:59:37.943Z,4.17
2023-09-17T22:02:25.690Z,4.27
2023-09-17T22:05:12.756Z,4.57
2023-09-17T22:07:59.870Z,4.10
2023-09-17T22:10:46.877Z,4.40
2023-09-17T22:13:34.789Z,3.87
2023-09-17T22:16:21.910Z,4.93
2023-09-17T22:19:10.428Z,3.90
2023-09-17T22:21:57.390Z,4.37
2023-09-17T22:24:47.283Z,4.40
2023-09-17T22:27:35.141Z,4.00
2023-09-17T22:30:22.238Z,4.00
2023-09-17T22:33:09.325Z,3.73
2023-09-17T22:35:56.421Z,4.80
2023-09-17T22:38:46.454Z,4.40
2023-09-17T22:41:34.380Z,4.50
2023-09-17T22:44:24.634Z,4.70
2023-09-17T22:47:13.475Z,3.50
2023-09-17T22:50:01.371Z,3.63
2023-09-17T22:52:48.439Z,4.17
2023-09-17T22:55:35.461Z,4.40
2023-09-17T22:58:22.599Z,4.33
2023-09-17T23:01:11.506Z,3.90
2023-09-17T23:03:58.900Z,4.37
2023-09-17T23:06:46.957Z,3.77
2023-09-17T23:09:34.103Z,4.80
2023-09-17T23:12:21.118Z,3.80
2023-09-17T23:15:08.506Z,3.97
2023-09-17T23:17:55.507Z,4.20
2023-09-17T23:20:42.560Z,4.07
2023-09-17T23:23:29.619Z,4.23
2023-09-17T23:26:18.368Z,3.87
2023-09-17T23:29:07.525Z,4.23
2023-09-17T23:31:54.665Z,4.00
2023-09-17T23:34:41.792Z,3.90
2023-09-17T23:37:28.809Z,3.50
2023-09-17T23:40:16.637Z,4.00
2023-09-17T23:43:04.095Z,4.40
2023-09-17T23:45:52.387Z,3.60
2023-09-17T23:48:39.584Z,4.50
2023-09-17T23:51:26.620Z,4.27
2023-09-17T23:54:13.802Z,3.80
2023-09-17T23:57:00.784Z,3.57
2023-09-17T23:59:47.743Z,3.97
